Playa Vista, California
Current Conditions -  °F | °C
As of 3:53 PM on Monday 24 Nov 2014 (Local Time) from KLAX Reporting Station
Few Clouds Few Clouds  
Wind Chill: 73°   Ceiling: Unl
Heat Index: 73°   Visibility: 10mi
Dew Point: 35°   Wind: 10mph
Humidity: 25%   Direction: 220°SW
Pressure: 30.19"   Gusts: NA
Location:  33.9534°N, 118.399°W
Report Text: KLAX 242353Z 22009KT 10SM FEW250 23/02 A3019 RMK AO2 SLP221 T02280017 10261 20217 55001 $
Loading
Personal Weather Stations






























Interactive Weather Map New forecast layout! Learn more

10-Day Weather Forecast

Advertisements
Track Severe Weather on mobile